Terminal Aerodrome Forecast
Issued by NWS

Home | Current Version | Previous Version | Text Only | Print | Product List | Glossary On
Versions: 1 2 3 4 5 6 7 8 9 10 11 12 13 14
000
FTUS46 KMFR 051743
TAFOTH
TAF
KOTH 051743Z 0518/0618 36017G24KT P6SM BKN025 OVC040
     FM051900 36018G30KT P6SM SCT020 BKN035
     FM060800 36012KT P6SM BKN020 OVC035=

USA.gov is the U.S. government's official web portal to all federal, state and local government web resources and services.